createdAt,value
2018-09-25T00:02:07.253Z,99.90
2018-09-25T00:04:42.207Z,99.90
2018-09-25T00:07:16.857Z,99.90
2018-09-25T00:09:52.233Z,99.90
2018-09-25T00:12:26.640Z,99.90
2018-09-25T00:15:01.380Z,99.90
2018-09-25T00:17:36.227Z,99.90
2018-09-25T00:20:10.837Z,99.90
2018-09-25T00:22:45.426Z,99.90
2018-09-25T00:25:21.225Z,99.90
2018-09-25T00:27:55.673Z,99.90
2018-09-25T00:30:30.415Z,99.90
2018-09-25T00:33:05.160Z,99.90
2018-09-25T00:35:39.802Z,99.90
2018-09-25T00:38:14.585Z,99.90
2018-09-25T00:40:48.886Z,99.90
2018-09-25T00:43:23.569Z,99.90
2018-09-25T00:45:58.036Z,99.90
2018-09-25T00:48:32.500Z,99.90
2018-09-25T00:51:06.799Z,99.90
2018-09-25T00:53:41.407Z,99.90
2018-09-25T00:56:15.870Z,99.90
2018-09-25T00:58:50.368Z,99.90
2018-09-25T01:01:24.947Z,99.90
2018-09-25T01:03:59.415Z,99.90
2018-09-25T01:06:34.143Z,99.90
2018-09-25T01:09:08.891Z,99.90
2018-09-25T01:11:43.427Z,99.90
2018-09-25T01:14:18.928Z,99.90
2018-09-25T01:16:54.112Z,99.90
2018-09-25T01:19:29.039Z,99.90
2018-09-25T01:22:03.992Z,99.90
2018-09-25T01:24:38.341Z,99.90
2018-09-25T01:27:13.013Z,99.90
2018-09-25T01:29:47.895Z,99.90
2018-09-25T01:32:22.814Z,99.90
2018-09-25T01:34:57.481Z,99.90
2018-09-25T01:37:32.349Z,99.90
2018-09-25T01:40:07.024Z,99.90
2018-09-25T01:42:41.841Z,99.90
2018-09-25T01:45:16.732Z,99.90
2018-09-25T01:47:51.542Z,99.90
2018-09-25T01:50:25.883Z,99.90
2018-09-25T01:53:00.404Z,99.90
2018-09-25T01:55:35.777Z,99.90
2018-09-25T01:58:10.387Z,99.90
2018-09-25T02:00:45.245Z,99.90
2018-09-25T02:03:20.014Z,99.90
2018-09-25T02:05:54.593Z,99.90
2018-09-25T02:08:29.407Z,99.90
2018-09-25T02:11:04.006Z,99.90
2018-09-25T02:13:38.710Z,99.90
2018-09-25T02:16:13.198Z,99.90
2018-09-25T02:18:48.013Z,99.90
2018-09-25T02:21:22.749Z,99.90
2018-09-25T02:23:57.245Z,99.90
2018-09-25T02:26:32.235Z,99.90
2018-09-25T02:29:06.823Z,99.90
2018-09-25T02:31:41.608Z,99.90
2018-09-25T02:34:16.293Z,99.90
2018-09-25T02:36:51.012Z,99.90
2018-09-25T02:39:32.327Z,99.90
2018-09-25T02:42:06.936Z,99.90
2018-09-25T02:44:41.354Z,99.90
2018-09-25T02:47:15.996Z,99.90
2018-09-25T02:49:50.546Z,99.90
2018-09-25T02:52:25.075Z,99.90
2018-09-25T02:54:59.627Z,99.90
2018-09-25T02:57:34.468Z,99.90
2018-09-25T03:00:08.889Z,99.90
2018-09-25T03:02:43.165Z,99.90
2018-09-25T03:05:17.697Z,99.90
2018-09-25T03:07:52.270Z,99.90
2018-09-25T03:10:26.737Z,99.90
2018-09-25T03:13:01.155Z,99.90
2018-09-25T03:15:36.825Z,99.90
2018-09-25T03:18:11.098Z,99.90
2018-09-25T03:20:45.814Z,99.90
2018-09-25T03:23:20.566Z,99.90
2018-09-25T03:25:55.233Z,99.90
2018-09-25T03:28:30.074Z,99.90
2018-09-25T03:31:04.694Z,99.90
2018-09-25T03:33:39.371Z,99.90
2018-09-25T03:36:14.087Z,99.90
2018-09-25T03:38:48.768Z,99.90
2018-09-25T03:41:23.877Z,99.90
2018-09-25T03:43:58.838Z,99.90
2018-09-25T03:46:33.772Z,99.90
2018-09-25T03:49:08.274Z,99.90
2018-09-25T03:51:43.287Z,99.90
2018-09-25T03:54:17.703Z,99.90
2018-09-25T03:56:52.227Z,99.90
2018-09-25T03:59:26.869Z,99.90
2018-09-25T04:02:01.380Z,99.90
2018-09-25T04:04:35.950Z,99.90
2018-09-25T04:07:10.483Z,99.90
2018-09-25T04:09:45.229Z,99.90
2018-09-25T04:12:19.944Z,99.90
2018-09-25T04:14:54.936Z,99.90
2018-09-25T04:17:29.458Z,99.90
2018-09-25T04:20:04.311Z,99.90
2018-09-25T04:22:39.006Z,99.90
2018-09-25T04:25:13.555Z,99.90
2018-09-25T04:27:48.095Z,99.90
2018-09-25T04:30:22.795Z,99.90
2018-09-25T04:32:57.339Z,99.90
2018-09-25T04:35:33.038Z,99.90
2018-09-25T04:38:07.677Z,99.90
2018-09-25T04:40:42.309Z,99.90
2018-09-25T04:43:16.794Z,99.90
2018-09-25T04:45:51.519Z,99.90
2018-09-25T04:48:26.053Z,99.90
2018-09-25T04:51:00.703Z,99.90
2018-09-25T04:53:35.309Z,99.90
2018-09-25T04:56:09.806Z,99.90
2018-09-25T04:58:44.676Z,99.90
2018-09-25T05:01:19.128Z,99.90
2018-09-25T05:03:53.877Z,99.90
2018-09-25T05:06:28.563Z,99.90
2018-09-25T05:09:03.076Z,99.90
2018-09-25T05:11:37.556Z,99.90
2018-09-25T05:14:12.389Z,99.90
2018-09-25T05:16:46.871Z,99.90
2018-09-25T05:19:21.169Z,99.90
2018-09-25T05:21:55.833Z,99.90
2018-09-25T05:24:30.071Z,99.90
2018-09-25T05:27:04.395Z,99.90
2018-09-25T05:29:39.086Z,99.90
2018-09-25T05:32:13.875Z,99.90
2018-09-25T05:34:48.765Z,99.90
2018-09-25T05:37:23.202Z,99.90
2018-09-25T05:39:57.554Z,99.90
2018-09-25T05:42:32.063Z,99.90
2018-09-25T05:45:06.574Z,99.90
2018-09-25T05:47:41.299Z,99.90
2018-09-25T05:50:16.032Z,99.90
2018-09-25T05:52:50.656Z,99.90
2018-09-25T05:55:25.286Z,99.90
2018-09-25T05:57:59.889Z,99.90
2018-09-25T06:00:34.358Z,99.90
2018-09-25T06:03:08.997Z,99.90
2018-09-25T06:05:43.546Z,99.90
2018-09-25T06:08:17.945Z,99.90
2018-09-25T06:10:52.426Z,99.90
2018-09-25T06:13:27.285Z,99.90
2018-09-25T06:16:02.048Z,99.90
2018-09-25T06:18:36.755Z,99.90
2018-09-25T06:21:11.537Z,99.90
2018-09-25T06:23:46.288Z,99.90
2018-09-25T06:26:20.820Z,99.90
2018-09-25T06:28:55.414Z,99.90
2018-09-25T06:31:30.020Z,99.90
2018-09-25T06:34:04.501Z,99.90
2018-09-25T06:36:39.054Z,99.90
2018-09-25T06:39:15.218Z,99.90
2018-09-25T06:41:50.977Z,99.90
2018-09-25T06:44:25.572Z,99.90
2018-09-25T06:47:00.388Z,99.90
2018-09-25T06:49:34.773Z,99.90
2018-09-25T06:52:09.639Z,99.90
2018-09-25T06:54:44.399Z,99.90
2018-09-25T06:57:18.893Z,99.90
2018-09-25T06:59:53.448Z,99.90
2018-09-25T07:02:28.928Z,99.90
2018-09-25T07:05:03.315Z,99.90
2018-09-25T07:07:38.038Z,99.90
2018-09-25T07:10:13.090Z,99.90
2018-09-25T07:12:47.624Z,99.90
2018-09-25T07:15:22.391Z,99.90
2018-09-25T07:17:57.220Z,99.90
2018-09-25T07:20:31.967Z,99.90
2018-09-25T07:23:06.542Z,99.90
2018-09-25T07:30:41.256Z,99.90
2018-09-25T07:33:15.764Z,99.90
2018-09-25T07:35:57.302Z,99.90
2018-09-25T07:38:31.821Z,99.90
2018-09-25T07:41:06.688Z,99.90
2018-09-25T07:43:41.012Z,99.90
2018-09-25T07:46:15.413Z,99.90
2018-09-25T07:48:49.727Z,99.90
2018-09-25T07:51:24.161Z,99.90
2018-09-25T07:53:59.003Z,99.90
2018-09-25T07:56:33.573Z,99.90
2018-09-25T07:59:08.127Z,99.90
2018-09-25T08:01:42.903Z,99.90
2018-09-25T08:04:17.699Z,99.90
2018-09-25T08:06:52.140Z,99.90
2018-09-25T08:09:26.923Z,99.90
2018-09-25T08:12:02.054Z,99.90
2018-09-25T08:14:36.990Z,99.90
2018-09-25T08:17:18.082Z,99.90
2018-09-25T08:19:52.635Z,99.90
2018-09-25T08:22:27.091Z,99.90
2018-09-25T08:25:01.795Z,99.90
2018-09-25T08:27:36.535Z,99.90
2018-09-25T08:30:11.631Z,99.90
2018-09-25T08:32:46.955Z,99.90
2018-09-25T08:35:21.317Z,99.90
2018-09-25T08:37:56.006Z,99.90
2018-09-25T08:40:30.327Z,99.90
2018-09-25T08:43:04.669Z,99.90
2018-09-25T08:45:39.513Z,99.90
2018-09-25T08:48:14.002Z,99.90
2018-09-25T08:50:48.618Z,99.90
2018-09-25T08:53:23.284Z,99.90
2018-09-25T08:55:57.919Z,99.90
2018-09-25T08:58:32.637Z,99.90
2018-09-25T09:01:07.395Z,99.90
2018-09-25T09:03:42.024Z,99.90
2018-09-25T09:06:16.575Z,99.90
2018-09-25T09:08:51.232Z,99.90
2018-09-25T09:11:25.839Z,99.90
2018-09-25T09:14:00.484Z,99.90
2018-09-25T09:16:34.844Z,99.00
2018-09-25T09:19:09.504Z,98.90
2018-09-25T09:21:44.086Z,98.30
2018-09-25T09:24:18.686Z,99.90
2018-09-25T09:26:53.160Z,97.50
2018-09-25T09:29:27.724Z,99.90
2018-09-25T09:32:02.458Z,98.60
2018-09-25T09:34:37.161Z,97.40
2018-09-25T09:37:11.809Z,97.50
2018-09-25T09:39:46.373Z,94.80
2018-09-25T09:42:20.835Z,91.30
2018-09-25T09:44:55.666Z,92.10
2018-09-25T09:47:30.168Z,92.70
2018-09-25T09:50:04.893Z,93.20
2018-09-25T09:52:39.546Z,91.90
2018-09-25T09:55:14.129Z,92.20
2018-09-25T09:57:48.850Z,92.20
2018-09-25T10:00:23.447Z,94.30
2018-09-25T10:02:58.252Z,93.50
2018-09-25T10:05:33.719Z,90.50
2018-09-25T10:08:08.313Z,86.30
2018-09-25T10:10:42.898Z,89.00
2018-09-25T10:13:17.473Z,85.50
2018-09-25T10:15:51.977Z,86.80
2018-09-25T10:18:27.338Z,87.90
2018-09-25T10:21:01.927Z,86.30
2018-09-25T10:23:36.368Z,89.30
2018-09-25T10:26:11.206Z,90.30
2018-09-25T10:28:46.740Z,83.70
2018-09-25T10:31:21.107Z,86.90
2018-09-25T10:33:55.599Z,82.30
2018-09-25T10:36:30.355Z,76.20
2018-09-25T10:39:04.661Z,78.50
2018-09-25T10:41:39.312Z,79.50
2018-09-25T10:44:14.138Z,81.70
2018-09-25T10:46:48.732Z,80.50
2018-09-25T10:49:23.434Z,76.10
2018-09-25T10:51:58.215Z,81.50
2018-09-25T10:54:32.558Z,74.70
2018-09-25T10:57:07.347Z,74.80
2018-09-25T10:59:41.696Z,74.10
2018-09-25T11:02:16.611Z,71.10
2018-09-25T11:04:51.480Z,72.00
2018-09-25T11:07:26.235Z,71.80
2018-09-25T11:10:01.178Z,72.30
2018-09-25T11:12:36.027Z,72.80
2018-09-25T11:15:10.477Z,67.00
2018-09-25T11:17:45.467Z,65.50
2018-09-25T11:20:19.614Z,67.20
2018-09-25T11:22:54.313Z,72.90
2018-09-25T11:25:28.843Z,72.70
2018-09-25T11:28:03.219Z,77.20
2018-09-25T11:30:38.013Z,71.10
2018-09-25T11:33:12.527Z,69.90
2018-09-25T11:35:47.240Z,70.00
2018-09-25T11:38:21.927Z,70.40
2018-09-25T11:40:56.952Z,70.80
2018-09-25T11:43:31.489Z,67.50
2018-09-25T11:46:06.082Z,70.10
2018-09-25T11:48:40.691Z,70.50
2018-09-25T11:51:15.156Z,70.60
2018-09-25T11:53:49.896Z,71.00
2018-09-25T11:56:24.483Z,72.10
2018-09-25T11:58:58.976Z,70.80
2018-09-25T12:01:33.496Z,70.50
2018-09-25T12:04:08.134Z,69.20
2018-09-25T12:06:42.324Z,69.40
2018-09-25T12:09:16.923Z,70.30
2018-09-25T12:11:51.462Z,69.30
2018-09-25T12:14:26.349Z,70.50
2018-09-25T12:17:00.928Z,71.70
2018-09-25T12:19:35.473Z,67.50
2018-09-25T12:22:10.977Z,70.90
2018-09-25T12:24:45.530Z,68.90
2018-09-25T12:27:20.256Z,70.20
2018-09-25T12:29:55.801Z,69.10
2018-09-25T12:32:30.253Z,67.60
2018-09-25T12:35:04.790Z,71.60
2018-09-25T12:37:39.319Z,71.80
2018-09-25T12:40:14.126Z,68.70
2018-09-25T12:42:48.686Z,70.10
2018-09-25T12:45:23.546Z,74.50
2018-09-25T12:47:58.148Z,71.40
2018-09-25T12:50:32.525Z,70.10
2018-09-25T12:53:06.925Z,74.20
2018-09-25T12:55:41.594Z,71.50
2018-09-25T12:58:16.321Z,72.30
2018-09-25T13:00:50.716Z,74.40
2018-09-25T13:03:26.429Z,76.10
2018-09-25T13:06:01.459Z,79.30
2018-09-25T13:08:36.114Z,73.60
2018-09-25T13:11:10.439Z,78.90
2018-09-25T13:13:45.007Z,74.10
2018-09-25T13:16:20.391Z,71.50
2018-09-25T13:18:55.393Z,73.20
2018-09-25T13:21:30.762Z,72.30
2018-09-25T13:24:05.808Z,77.00
2018-09-25T13:26:40.507Z,71.60
2018-09-25T13:29:16.019Z,76.00
2018-09-25T13:31:50.870Z,74.50
2018-09-25T13:34:25.442Z,74.80
2018-09-25T13:36:59.978Z,76.40
2018-09-25T13:39:34.521Z,76.50
2018-09-25T13:42:08.984Z,75.30
2018-09-25T13:44:43.647Z,74.80
2018-09-25T13:47:18.271Z,76.40
2018-09-25T13:49:52.819Z,77.70
2018-09-25T13:52:27.326Z,79.70
2018-09-25T13:55:01.985Z,82.00
2018-09-25T13:57:36.576Z,79.40
2018-09-25T14:00:10.966Z,77.30
2018-09-25T14:02:45.730Z,78.40
2018-09-25T14:05:20.153Z,81.20
2018-09-25T14:07:54.808Z,82.70
2018-09-25T14:10:29.302Z,86.50
2018-09-25T14:13:03.727Z,80.10
2018-09-25T14:15:38.354Z,83.30
2018-09-25T14:18:13.143Z,82.00
2018-09-25T14:20:47.809Z,84.80
2018-09-25T14:23:22.816Z,84.00
2018-09-25T14:25:57.443Z,86.30
2018-09-25T14:28:31.957Z,84.10
2018-09-25T14:31:06.701Z,83.50
2018-09-25T14:33:41.319Z,83.90
2018-09-25T14:36:16.261Z,84.30
2018-09-25T14:38:50.974Z,82.60
2018-09-25T14:41:25.706Z,84.40
2018-09-25T14:44:00.082Z,82.20
2018-09-25T14:46:34.726Z,84.20
2018-09-25T14:49:09.029Z,85.20
2018-09-25T14:51:43.709Z,85.80
2018-09-25T14:54:18.183Z,82.10
2018-09-25T14:56:52.641Z,83.20
2018-09-25T14:59:26.981Z,82.80
2018-09-25T15:02:01.992Z,84.50
2018-09-25T15:04:36.356Z,83.60
2018-09-25T15:07:11.043Z,83.80
2018-09-25T15:09:46.428Z,86.80
2018-09-25T15:12:20.817Z,87.70
2018-09-25T15:14:55.695Z,88.20
2018-09-25T15:17:30.214Z,90.50
2018-09-25T15:20:04.667Z,86.80
2018-09-25T15:22:39.415Z,87.90
2018-09-25T15:25:14.249Z,91.50
2018-09-25T15:27:49.645Z,90.20
2018-09-25T15:30:25.580Z,91.10
2018-09-25T15:33:00.421Z,91.90
2018-09-25T15:35:35.434Z,93.10
2018-09-25T15:38:10.016Z,92.00
2018-09-25T15:40:44.943Z,93.50
2018-09-25T15:43:19.609Z,93.40
2018-09-25T15:45:54.387Z,94.10
2018-09-25T15:48:28.596Z,94.60
2018-09-25T15:51:03.179Z,93.10
2018-09-25T15:53:37.922Z,93.60
2018-09-25T15:56:12.480Z,95.80
2018-09-25T15:58:47.138Z,95.20
2018-09-25T16:01:21.696Z,96.00
2018-09-25T16:03:56.325Z,94.90
2018-09-25T16:06:31.016Z,94.60
2018-09-25T16:09:05.923Z,95.30
2018-09-25T16:11:40.369Z,95.30
2018-09-25T16:14:15.101Z,95.00
2018-09-25T16:16:49.736Z,94.50
2018-09-25T16:19:24.262Z,96.50
2018-09-25T16:21:58.950Z,95.70
2018-09-25T16:24:33.381Z,97.20
2018-09-25T16:27:07.815Z,97.10
2018-09-25T16:29:42.368Z,97.40
2018-09-25T16:32:17.207Z,98.30
2018-09-25T16:34:51.854Z,99.90
2018-09-25T16:37:26.616Z,99.90
2018-09-25T16:40:01.366Z,99.90
2018-09-25T16:42:35.957Z,99.90
2018-09-25T16:45:10.581Z,99.90
2018-09-25T16:47:52.102Z,99.90
2018-09-25T16:50:26.708Z,99.90
2018-09-25T16:53:01.102Z,99.90
2018-09-25T16:55:35.821Z,99.90
2018-09-25T16:58:10.252Z,99.90
2018-09-25T17:00:45.069Z,99.90
2018-09-25T17:03:19.663Z,99.90
2018-09-25T17:05:54.268Z,99.90
2018-09-25T17:08:28.767Z,99.90
2018-09-25T17:11:03.286Z,99.90
2018-09-25T17:13:38.010Z,99.90
2018-09-25T17:16:12.464Z,99.90
2018-09-25T17:18:46.967Z,99.90
2018-09-25T17:21:21.358Z,99.90
2018-09-25T17:23:55.984Z,99.90
2018-09-25T17:26:30.496Z,99.90
2018-09-25T17:29:04.964Z,99.90
2018-09-25T17:31:39.637Z,99.90
2018-09-25T17:34:14.539Z,99.90
2018-09-25T17:36:49.586Z,99.90
2018-09-25T17:39:24.486Z,99.90
2018-09-25T17:41:59.208Z,99.90
2018-09-25T17:44:33.707Z,99.90
2018-09-25T17:47:08.296Z,99.90
2018-09-25T17:49:42.687Z,99.90
2018-09-25T17:52:17.390Z,99.90
2018-09-25T17:54:52.277Z,99.90
2018-09-25T17:57:27.004Z,99.90
2018-09-25T18:00:01.836Z,99.90
2018-09-25T18:02:36.424Z,99.90
2018-09-25T18:05:11.037Z,99.90
2018-09-25T18:07:45.636Z,99.90
2018-09-25T18:10:20.179Z,99.90
2018-09-25T18:12:54.435Z,99.90
2018-09-25T18:15:29.167Z,99.90
2018-09-25T18:18:03.856Z,99.90
2018-09-25T18:20:38.615Z,99.90
2018-09-25T18:23:12.987Z,99.90
2018-09-25T18:25:47.608Z,99.90
2018-09-25T18:28:22.408Z,99.90
2018-09-25T18:30:57.160Z,99.90
2018-09-25T18:33:32.398Z,99.90
2018-09-25T18:36:06.715Z,99.90
2018-09-25T18:38:41.339Z,99.90
2018-09-25T18:41:15.914Z,99.90
2018-09-25T18:43:50.610Z,99.90
2018-09-25T18:46:25.246Z,99.90
2018-09-25T18:49:00.617Z,99.90
2018-09-25T18:51:35.069Z,99.90
2018-09-25T18:54:09.876Z,99.90
2018-09-25T18:56:44.438Z,99.90
2018-09-25T18:59:19.039Z,99.90
2018-09-25T19:01:53.588Z,99.90
2018-09-25T19:04:28.243Z,99.90
2018-09-25T19:07:02.761Z,99.90
2018-09-25T19:09:37.044Z,99.90
2018-09-25T19:12:12.748Z,99.90
2018-09-25T19:14:47.217Z,99.90
2018-09-25T19:17:21.789Z,99.90
2018-09-25T19:19:56.368Z,99.90
2018-09-25T19:22:30.969Z,99.90
2018-09-25T19:25:05.330Z,99.90
2018-09-25T19:27:39.956Z,99.90
2018-09-25T19:30:14.356Z,99.90
2018-09-25T19:32:49.798Z,99.90
2018-09-25T19:35:24.558Z,99.90
2018-09-25T19:37:59.249Z,99.90
2018-09-25T19:40:33.813Z,99.90
2018-09-25T19:43:08.628Z,99.90
2018-09-25T19:45:43.245Z,99.90
2018-09-25T19:48:17.844Z,99.90
2018-09-25T19:50:52.288Z,99.90
2018-09-25T19:53:26.793Z,99.90
2018-09-25T19:56:01.184Z,99.90
2018-09-25T19:58:35.804Z,99.90
2018-09-25T20:01:10.457Z,99.90
2018-09-25T20:03:44.940Z,99.90
2018-09-25T20:06:19.663Z,99.90
2018-09-25T20:08:54.345Z,99.90
2018-09-25T20:11:29.033Z,99.90
2018-09-25T20:14:03.547Z,99.90
2018-09-25T20:16:38.216Z,99.90
2018-09-25T20:19:13.251Z,99.90
2018-09-25T20:21:47.865Z,99.90
2018-09-25T20:24:22.497Z,99.90
2018-09-25T20:26:56.942Z,99.90
2018-09-25T20:29:31.937Z,99.90
2018-09-25T20:32:06.521Z,99.90
2018-09-25T20:34:41.235Z,99.90
2018-09-25T20:37:16.264Z,99.90
2018-09-25T20:39:50.989Z,99.90
2018-09-25T20:42:25.567Z,99.90
2018-09-25T20:45:00.000Z,99.90
2018-09-25T20:47:34.598Z,99.90
2018-09-25T20:50:09.170Z,99.90
2018-09-25T20:52:43.885Z,99.90
2018-09-25T20:55:18.446Z,99.90
2018-09-25T20:57:53.033Z,99.90
2018-09-25T21:00:27.477Z,99.90
2018-09-25T21:03:01.947Z,99.90
2018-09-25T21:05:36.945Z,99.90
2018-09-25T21:08:11.996Z,99.90
2018-09-25T21:10:47.008Z,99.90
2018-09-25T21:13:21.736Z,99.90
2018-09-25T21:15:56.642Z,99.90
2018-09-25T21:18:31.297Z,99.90
2018-09-25T21:21:05.804Z,99.90
2018-09-25T21:23:40.400Z,99.90
2018-09-25T21:26:14.947Z,99.90
2018-09-25T21:28:49.697Z,99.90
2018-09-25T21:31:24.322Z,99.90
2018-09-25T21:33:58.886Z,99.90
2018-09-25T21:36:33.454Z,99.90
2018-09-25T21:39:08.049Z,99.90
2018-09-25T21:41:42.485Z,99.90
2018-09-25T21:44:17.295Z,99.90
2018-09-25T21:46:51.929Z,99.90
2018-09-25T21:49:26.901Z,99.90
2018-09-25T21:52:01.296Z,99.90
2018-09-25T21:54:35.563Z,99.90
2018-09-25T21:57:10.436Z,99.90
2018-09-25T21:59:45.928Z,99.90
2018-09-25T22:02:20.685Z,99.90
2018-09-25T22:05:01.882Z,99.90
2018-09-25T22:07:36.448Z,99.90
2018-09-25T22:10:11.016Z,99.90
2018-09-25T22:12:45.636Z,99.90
2018-09-25T22:15:20.311Z,99.90
2018-09-25T22:17:54.884Z,99.90
2018-09-25T22:20:29.616Z,99.90
2018-09-25T22:23:04.368Z,99.90
2018-09-25T22:25:39.057Z,99.90
2018-09-25T22:28:13.856Z,99.90
2018-09-25T22:30:48.186Z,99.90
2018-09-25T22:33:22.684Z,99.90
2018-09-25T22:35:57.648Z,99.90
2018-09-25T22:38:32.033Z,99.90
2018-09-25T22:41:06.616Z,99.90
2018-09-25T22:43:40.997Z,99.90
2018-09-25T22:46:15.528Z,99.90
2018-09-25T22:48:49.943Z,99.90
2018-09-25T22:51:24.647Z,99.90
2018-09-25T22:53:59.333Z,99.90
2018-09-25T22:56:33.913Z,99.90
2018-09-25T22:59:08.487Z,99.90
2018-09-25T23:01:43.003Z,99.90
2018-09-25T23:04:17.737Z,99.90
2018-09-25T23:06:52.324Z,99.90
2018-09-25T23:09:26.875Z,99.90
2018-09-25T23:12:01.475Z,99.90
2018-09-25T23:14:36.185Z,99.90
2018-09-25T23:17:10.684Z,99.90
2018-09-25T23:19:45.353Z,99.90
2018-09-25T23:22:20.023Z,99.90
2018-09-25T23:24:54.460Z,99.90
2018-09-25T23:27:28.756Z,99.90
2018-09-25T23:30:03.332Z,99.90
2018-09-25T23:32:37.838Z,99.90
2018-09-25T23:35:12.563Z,99.90
2018-09-25T23:37:47.554Z,99.90
2018-09-25T23:40:24.029Z,99.90
2018-09-25T23:43:58.564Z,99.90
2018-09-25T23:46:39.731Z,99.90
2018-09-25T23:49:20.807Z,99.90
2018-09-25T23:52:04.656Z,99.90
2018-09-25T23:54:44.723Z,99.90
2018-09-25T23:57:20.088Z,99.90
